createdAt,value
2018-06-16T00:00:05.504Z,6.97
2018-06-16T00:02:33.033Z,7.10
2018-06-16T00:05:00.612Z,7.40
2018-06-16T00:07:28.165Z,7.03
2018-06-16T00:09:55.685Z,7.90
2018-06-16T00:12:23.206Z,7.23
2018-06-16T00:14:50.739Z,8.50
2018-06-16T00:17:18.262Z,7.97
2018-06-16T00:19:45.779Z,7.45
2018-06-16T00:22:13.307Z,7.83
2018-06-16T00:24:40.840Z,8.13
2018-06-16T00:27:08.346Z,8.28
2018-06-16T00:29:35.872Z,8.53
2018-06-16T00:32:03.399Z,9.33
2018-06-16T00:34:30.922Z,9.25
2018-06-16T00:36:58.447Z,9.30
2018-06-16T00:39:25.973Z,9.63
2018-06-16T00:41:53.540Z,9.68
2018-06-16T00:44:21.079Z,9.93
2018-06-16T00:46:48.600Z,9.73
2018-06-16T00:49:16.133Z,8.87
2018-06-16T00:51:43.647Z,8.80
2018-06-16T00:54:11.278Z,8.70
2018-06-16T00:56:38.804Z,8.70
2018-06-16T00:59:06.319Z,9.05
2018-06-16T01:01:33.860Z,9.60
2018-06-16T01:04:01.388Z,8.63
2018-06-16T01:06:28.917Z,9.33
2018-06-16T01:08:56.435Z,10.00
2018-06-16T01:11:23.961Z,9.20
2018-06-16T01:13:51.516Z,9.60
2018-06-16T01:16:19.077Z,10.03
2018-06-16T01:18:46.576Z,9.80
2018-06-16T01:21:14.139Z,9.33
2018-06-16T01:23:41.665Z,8.97
2018-06-16T01:26:09.201Z,9.57
2018-06-16T01:28:36.715Z,9.27
2018-06-16T01:31:04.414Z,9.70
2018-06-16T01:33:31.935Z,8.90
2018-06-16T01:35:59.455Z,9.87
2018-06-16T01:38:26.987Z,8.97
2018-06-16T01:40:54.523Z,8.87
2018-06-16T01:43:22.020Z,9.50
2018-06-16T01:45:49.587Z,9.43
2018-06-16T01:48:17.091Z,9.50
2018-06-16T01:50:44.639Z,9.53
2018-06-16T01:53:12.160Z,9.30
2018-06-16T01:55:39.691Z,9.70
2018-06-16T01:58:07.215Z,9.40
2018-06-16T02:00:34.755Z,10.37
2018-06-16T02:03:02.300Z,10.20
2018-06-16T02:05:29.827Z,9.47
2018-06-16T02:07:57.352Z,9.23
2018-06-16T02:10:24.883Z,10.57
2018-06-16T02:12:52.404Z,10.83
2018-06-16T02:15:19.913Z,9.60
2018-06-16T02:17:47.431Z,10.67
2018-06-16T02:20:14.933Z,10.97
2018-06-16T02:22:42.439Z,11.47
2018-06-16T02:25:09.943Z,10.03
2018-06-16T02:27:37.448Z,10.60
2018-06-16T02:30:04.973Z,15.07
2018-06-16T02:32:32.467Z,11.63
2018-06-16T02:34:59.969Z,10.93
2018-06-16T02:37:27.471Z,10.17
2018-06-16T02:39:54.996Z,10.70
2018-06-16T02:42:22.500Z,10.73
2018-06-16T02:44:50.015Z,10.80
2018-06-16T02:47:17.538Z,11.80
2018-06-16T02:49:45.032Z,11.33
2018-06-16T02:52:12.535Z,11.70
2018-06-16T02:54:40.038Z,11.97
2018-06-16T02:57:07.552Z,11.27
2018-06-16T02:59:35.054Z,10.60
2018-06-16T03:02:02.672Z,11.37
2018-06-16T03:04:30.174Z,11.60
2018-06-16T03:06:57.697Z,11.43
2018-06-16T03:09:25.216Z,11.80
2018-06-16T03:11:52.703Z,12.53
2018-06-16T03:14:20.228Z,12.47
2018-06-16T03:16:47.725Z,12.07
2018-06-16T03:19:15.227Z,11.90
2018-06-16T03:21:42.742Z,11.90
2018-06-16T03:24:10.265Z,12.37
2018-06-16T03:26:37.780Z,12.60
2018-06-16T03:29:05.639Z,12.00
2018-06-16T03:31:33.143Z,11.30
2018-06-16T03:34:00.647Z,11.17
2018-06-16T03:36:28.197Z,12.17
2018-06-16T03:38:55.684Z,11.97
2018-06-16T03:41:23.179Z,12.03
2018-06-16T03:43:50.701Z,11.73
2018-06-16T03:46:18.200Z,11.20
2018-06-16T03:48:45.703Z,11.80
2018-06-16T03:51:13.197Z,12.27
2018-06-16T03:53:40.703Z,12.00
2018-06-16T03:56:08.195Z,11.77
2018-06-16T03:58:35.711Z,10.80
2018-06-16T04:01:03.256Z,10.93
2018-06-16T04:03:30.799Z,11.50
2018-06-16T04:05:58.455Z,11.57
2018-06-16T04:08:25.943Z,12.87
2018-06-16T04:10:53.531Z,12.27
2018-06-16T04:13:21.056Z,11.27
2018-06-16T04:15:48.571Z,11.80
2018-06-16T04:18:16.085Z,12.03
2018-06-16T04:20:43.620Z,12.40
2018-06-16T04:23:11.112Z,11.37
2018-06-16T04:25:38.637Z,11.67
2018-06-16T04:28:06.154Z,10.88
2018-06-16T04:30:33.811Z,11.50
2018-06-16T04:33:01.317Z,11.20
2018-06-16T04:35:28.835Z,11.35
2018-06-16T04:37:56.339Z,12.15
2018-06-16T04:40:23.850Z,12.78
2018-06-16T04:42:51.379Z,12.10
2018-06-16T04:45:18.887Z,11.95
2018-06-16T04:47:46.413Z,12.70
2018-06-16T04:50:13.927Z,12.73
2018-06-16T04:52:41.444Z,12.68
2018-06-16T04:55:08.946Z,11.48
2018-06-16T04:57:36.435Z,12.00
2018-06-16T05:00:04.263Z,11.28
2018-06-16T05:02:31.784Z,11.83
2018-06-16T05:04:59.282Z,11.18
2018-06-16T05:07:26.789Z,12.00
2018-06-16T05:09:54.295Z,12.55
2018-06-16T05:12:21.795Z,13.38
2018-06-16T05:14:49.325Z,12.10
2018-06-16T05:17:16.864Z,12.82
2018-06-16T05:19:44.401Z,12.40
2018-06-16T05:22:11.921Z,13.10
2018-06-16T05:24:39.445Z,12.55
2018-06-16T05:27:06.992Z,13.60
2018-06-16T05:29:34.523Z,13.20
2018-06-16T05:32:02.067Z,14.33
2018-06-16T05:34:29.590Z,12.98
2018-06-16T05:36:57.120Z,13.00
2018-06-16T05:39:24.633Z,12.93
2018-06-16T05:41:52.155Z,13.48
2018-06-16T05:44:19.680Z,12.63
2018-06-16T05:46:47.207Z,12.25
2018-06-16T05:49:14.760Z,12.45
2018-06-16T05:51:42.285Z,13.32
2018-06-16T05:54:09.816Z,12.37
2018-06-16T05:56:37.364Z,12.70
2018-06-16T05:59:05.101Z,13.03
2018-06-16T06:01:32.649Z,12.47
2018-06-16T06:04:00.185Z,13.38
2018-06-16T06:06:27.725Z,12.30
2018-06-16T06:08:55.244Z,13.25
2018-06-16T06:11:22.767Z,13.48
2018-06-16T06:13:50.507Z,13.58
2018-06-16T06:16:18.042Z,13.65
2018-06-16T06:18:45.543Z,14.03
2018-06-16T06:21:13.064Z,14.07
2018-06-16T06:23:40.563Z,14.10
2018-06-16T06:26:08.081Z,13.03
2018-06-16T06:28:35.595Z,14.35
2018-06-16T06:31:03.107Z,13.95
2018-06-16T06:33:30.615Z,13.90
2018-06-16T06:35:58.119Z,13.93
2018-06-16T06:38:25.594Z,14.20
2018-06-16T06:40:53.090Z,16.17
2018-06-16T06:43:20.653Z,14.63
2018-06-16T06:45:48.132Z,14.13
2018-06-16T06:48:15.646Z,13.50
2018-06-16T06:50:43.153Z,12.93
2018-06-16T06:53:10.663Z,14.18
2018-06-16T06:55:38.171Z,15.80
2018-06-16T06:58:05.694Z,13.85
2018-06-16T07:03:36.217Z,13.38
2018-06-16T07:06:03.731Z,12.85
2018-06-16T07:08:31.238Z,12.93
2018-06-16T07:10:58.859Z,13.50
2018-06-16T07:13:26.294Z,13.85
2018-06-16T07:15:53.808Z,14.40
2018-06-16T07:18:21.309Z,13.62
2018-06-16T07:20:48.818Z,13.90
2018-06-16T07:23:16.327Z,13.30
2018-06-16T07:25:43.839Z,13.83
2018-06-16T07:28:11.357Z,13.32
2018-06-16T07:30:39.029Z,25.20
2018-06-16T07:33:06.579Z,12.75
2018-06-16T07:35:34.097Z,12.53
2018-06-16T07:41:18.761Z,12.10
2018-06-16T07:43:46.273Z,12.53
2018-06-16T07:46:13.779Z,12.05
2018-06-16T07:48:41.278Z,12.50
2018-06-16T07:51:08.800Z,11.70
2018-06-16T07:53:36.316Z,10.68
2018-06-16T07:56:03.816Z,11.38
2018-06-16T07:58:31.323Z,11.28
2018-06-16T08:00:58.819Z,10.95
2018-06-16T08:03:26.338Z,9.85
2018-06-16T08:05:53.847Z,10.50
2018-06-16T08:08:21.353Z,9.45
2018-06-16T08:10:48.850Z,10.50
2018-06-16T08:13:16.419Z,9.90
2018-06-16T08:15:44.000Z,9.15
2018-06-16T08:18:11.537Z,8.85
2018-06-16T08:20:39.080Z,9.15
2018-06-16T08:23:06.611Z,9.70
2018-06-16T08:25:34.135Z,8.68
2018-06-16T08:28:01.668Z,8.53
2018-06-16T08:30:29.226Z,8.93
2018-06-16T08:32:56.734Z,8.25
2018-06-16T08:35:24.282Z,10.98
2018-06-16T08:37:51.805Z,8.48
2018-06-16T08:40:19.330Z,8.48
2018-06-16T08:42:46.860Z,7.83
2018-06-16T08:45:14.461Z,8.68
2018-06-16T08:47:41.971Z,7.75
2018-06-16T08:50:09.496Z,8.43
2018-06-16T08:52:37.014Z,7.92
2018-06-16T08:55:04.911Z,7.37
2018-06-16T08:57:32.407Z,7.72
2018-06-16T08:59:59.935Z,8.08
2018-06-16T09:02:27.454Z,7.95
2018-06-16T09:04:54.984Z,7.47
2018-06-16T09:07:22.513Z,6.67
2018-06-16T09:09:50.039Z,7.45
2018-06-16T09:12:17.569Z,15.60
2018-06-16T09:14:45.111Z,7.53
2018-06-16T09:17:12.645Z,6.42
2018-06-16T09:19:40.169Z,6.25
2018-06-16T09:22:07.696Z,6.30
2018-06-16T09:24:35.253Z,7.20
2018-06-16T09:27:02.820Z,6.62
2018-06-16T09:29:30.351Z,6.30
2018-06-16T09:31:57.887Z,6.47
2018-06-16T09:34:25.417Z,5.67
2018-06-16T09:36:52.961Z,5.87
2018-06-16T09:39:20.489Z,6.30
2018-06-16T09:41:48.041Z,5.95
2018-06-16T09:44:15.546Z,5.08
2018-06-16T09:46:43.074Z,5.00
2018-06-16T09:49:10.592Z,4.80
2018-06-16T09:51:38.132Z,4.45
2018-06-16T09:54:05.663Z,5.03
2018-06-16T09:56:33.184Z,4.83
2018-06-16T09:59:00.703Z,5.00
2018-06-16T10:01:28.256Z,4.90
2018-06-16T10:03:55.767Z,4.72
2018-06-16T10:06:23.280Z,4.95
2018-06-16T10:08:50.795Z,5.28
2018-06-16T10:11:18.327Z,4.83
2018-06-16T10:13:45.859Z,5.20
2018-06-16T10:16:13.393Z,5.05
2018-06-16T10:18:40.908Z,4.60
2018-06-16T10:21:08.450Z,4.75
2018-06-16T10:23:35.971Z,5.00
2018-06-16T10:26:03.515Z,4.90
2018-06-16T10:28:31.043Z,4.50
2018-06-16T10:30:58.580Z,4.60
2018-06-16T10:33:26.180Z,4.30
2018-06-16T10:35:53.770Z,4.65
2018-06-16T10:38:21.306Z,4.60
2018-06-16T10:40:48.832Z,4.12
2018-06-16T10:43:41.320Z,4.83
2018-06-16T10:46:08.849Z,4.67
2018-06-16T10:48:36.381Z,4.33
2018-06-16T10:51:03.923Z,4.67
2018-06-16T10:53:31.445Z,4.40
2018-06-16T10:55:58.963Z,4.67
2018-06-16T10:58:26.477Z,4.35
2018-06-16T11:00:53.983Z,4.40
2018-06-16T11:03:21.518Z,4.60
2018-06-16T11:05:49.052Z,4.83
2018-06-16T11:08:16.591Z,4.72
2018-06-16T11:10:44.111Z,4.42
2018-06-16T11:19:27.889Z,5.22
2018-06-16T11:21:55.420Z,5.55
2018-06-16T11:24:22.935Z,4.87
2018-06-16T11:26:50.435Z,5.20
2018-06-16T11:29:17.957Z,4.75
2018-06-16T11:31:53.727Z,5.22
2018-06-16T11:34:22.295Z,5.17
2018-06-16T11:36:49.812Z,4.83
2018-06-16T11:39:17.349Z,4.80
2018-06-16T11:41:44.846Z,4.70
2018-06-16T11:44:12.347Z,4.65
2018-06-16T11:46:39.856Z,4.35
2018-06-16T11:49:07.370Z,4.70
2018-06-16T11:51:34.876Z,4.60
2018-06-16T11:54:02.388Z,4.67
2018-06-16T11:56:29.897Z,4.30
2018-06-16T11:58:57.443Z,4.78
2018-06-16T12:01:24.935Z,4.83
2018-06-16T12:03:52.620Z,4.80
2018-06-16T12:06:20.123Z,5.00
2018-06-16T12:08:47.627Z,4.70
2018-06-16T12:11:15.148Z,4.40
2018-06-16T12:13:42.684Z,4.92
2018-06-16T12:16:10.219Z,4.67
2018-06-16T12:18:37.756Z,4.80
2018-06-16T12:21:05.351Z,4.33
2018-06-16T12:23:32.880Z,4.92
2018-06-16T12:26:00.391Z,4.45
2018-06-16T12:28:27.960Z,4.40
2018-06-16T12:30:55.523Z,4.80
2018-06-16T12:33:23.045Z,4.95
2018-06-16T12:35:50.579Z,5.80
2018-06-16T12:38:18.503Z,4.40
2018-06-16T12:40:46.054Z,4.35
2018-06-16T12:43:13.576Z,4.87
2018-06-16T12:45:41.121Z,4.55
2018-06-16T12:48:08.676Z,4.87
2018-06-16T12:50:36.199Z,4.60
2018-06-16T12:53:03.740Z,4.65
2018-06-16T12:55:31.307Z,4.65
2018-06-16T12:57:58.856Z,4.40
2018-06-16T13:00:26.405Z,4.80
2018-06-16T13:02:53.925Z,4.60
2018-06-16T13:05:21.464Z,4.87
2018-06-16T13:07:49.004Z,5.10
2018-06-16T13:10:16.565Z,4.53
2018-06-16T13:12:44.159Z,4.85
2018-06-16T13:15:11.673Z,4.70
2018-06-16T13:17:39.363Z,5.15
2018-06-16T13:20:06.875Z,5.00
2018-06-16T13:22:34.463Z,4.90
2018-06-16T13:25:01.978Z,4.70
2018-06-16T13:27:29.476Z,4.72
2018-06-16T13:29:56.983Z,4.92
2018-06-16T13:32:24.500Z,4.72
2018-06-16T13:34:52.017Z,4.97
2018-06-16T13:37:19.522Z,5.00
2018-06-16T13:39:47.031Z,5.35
2018-06-16T13:42:14.560Z,5.37
2018-06-16T13:44:42.064Z,5.75
2018-06-16T13:47:09.584Z,5.10
2018-06-16T13:49:37.074Z,5.40
2018-06-16T13:52:04.910Z,5.42
2018-06-16T13:54:32.423Z,5.60
2018-06-16T13:56:59.948Z,5.62
2018-06-16T13:59:27.465Z,5.35
2018-06-16T14:01:55.009Z,5.62
2018-06-16T14:04:22.527Z,5.00
2018-06-16T14:06:50.039Z,5.10
2018-06-16T14:09:17.549Z,4.80
2018-06-16T14:11:45.047Z,4.85
2018-06-16T14:14:12.559Z,4.72
2018-06-16T14:16:40.085Z,4.30
2018-06-16T14:19:07.592Z,5.20
2018-06-16T14:21:35.123Z,5.17
2018-06-16T14:27:22.816Z,5.05
2018-06-16T14:29:50.347Z,5.37
2018-06-16T14:32:17.871Z,5.22
2018-06-16T14:34:45.389Z,5.10
2018-06-16T14:37:12.941Z,5.37
2018-06-16T14:39:40.547Z,4.78
2018-06-16T14:42:08.063Z,5.03
2018-06-16T14:44:35.571Z,4.75
2018-06-16T14:47:03.148Z,5.25
2018-06-16T14:49:30.600Z,4.70
2018-06-16T14:51:58.104Z,5.05
2018-06-16T14:54:25.599Z,4.90
2018-06-16T14:56:53.107Z,4.72
2018-06-16T14:59:20.625Z,4.95
2018-06-16T15:01:48.131Z,4.72
2018-06-16T15:04:15.654Z,4.70
2018-06-16T15:06:43.143Z,5.22
2018-06-16T15:09:11.385Z,5.30
2018-06-16T15:11:38.951Z,5.00
2018-06-16T15:14:06.715Z,5.28
2018-06-16T15:16:34.247Z,5.28
2018-06-16T15:19:01.778Z,5.47
2018-06-16T15:21:29.302Z,5.28
2018-06-16T15:23:56.827Z,5.10
2018-06-16T15:26:24.363Z,5.58
2018-06-16T15:28:51.955Z,5.50
2018-06-16T15:31:19.468Z,5.28
2018-06-16T15:33:46.988Z,5.65
2018-06-16T15:36:14.537Z,5.33
2018-06-16T15:38:42.056Z,5.10
2018-06-16T15:41:09.580Z,4.97
2018-06-16T15:43:37.114Z,5.10
2018-06-16T15:46:04.672Z,5.92
2018-06-16T15:48:32.210Z,4.80
2018-06-16T15:50:59.727Z,5.30
2018-06-16T15:53:27.255Z,5.55
2018-06-16T15:55:54.770Z,5.67
2018-06-16T15:58:22.313Z,5.42
2018-06-16T16:00:49.899Z,5.28
2018-06-16T16:03:17.433Z,5.62
2018-06-16T16:05:45.006Z,5.40
2018-06-16T16:08:12.487Z,5.10
2018-06-16T16:10:40.015Z,5.50
2018-06-16T16:13:07.573Z,5.50
2018-06-16T16:15:35.116Z,5.47
2018-06-16T16:18:04.785Z,5.22
2018-06-16T16:20:32.358Z,5.33
2018-06-16T16:22:59.896Z,5.33
2018-06-16T16:25:38.426Z,5.25
2018-06-16T16:28:05.954Z,4.95
2018-06-16T16:30:33.513Z,5.28
2018-06-16T16:33:01.144Z,5.55
2018-06-16T16:35:28.680Z,4.90
2018-06-16T16:37:56.195Z,5.40
2018-06-16T16:40:24.319Z,5.03
2018-06-16T16:42:51.844Z,5.12
2018-06-16T16:45:19.394Z,5.55
2018-06-16T16:47:47.936Z,5.65
2018-06-16T16:50:15.479Z,5.33
2018-06-16T16:52:42.983Z,5.35
2018-06-16T16:55:10.517Z,5.30
2018-06-16T16:57:38.039Z,5.58
2018-06-16T17:00:05.811Z,5.25
2018-06-16T17:02:41.911Z,5.42
2018-06-16T17:05:09.663Z,6.05
2018-06-16T17:07:37.211Z,5.25
2018-06-16T17:10:05.523Z,5.87
2018-06-16T17:12:33.043Z,6.25
2018-06-16T17:15:00.599Z,5.95
2018-06-16T17:17:28.137Z,5.80
2018-06-16T17:19:55.681Z,5.37
2018-06-16T17:22:23.215Z,5.72
2018-06-16T17:24:50.732Z,5.95
2018-06-16T17:27:18.234Z,5.78
2018-06-16T17:29:45.753Z,5.80
2018-06-16T17:32:13.263Z,6.53
2018-06-16T17:34:40.791Z,5.95
2018-06-16T17:37:08.303Z,6.28
2018-06-16T17:39:35.814Z,5.97
2018-06-16T17:45:28.433Z,6.60
2018-06-16T17:47:55.986Z,6.12
2018-06-16T17:50:23.503Z,6.30
2018-06-16T17:52:51.101Z,6.53
2018-06-16T17:55:18.631Z,6.90
2018-06-16T17:57:46.157Z,6.33
2018-06-16T18:00:13.790Z,6.25
2018-06-16T18:02:41.313Z,7.15
2018-06-16T18:05:08.849Z,7.00
2018-06-16T18:07:36.620Z,7.50
2018-06-16T18:10:04.706Z,7.87
2018-06-16T18:12:32.238Z,7.40
2018-06-16T18:14:59.771Z,7.37
2018-06-16T18:17:27.305Z,7.65
2018-06-16T18:19:54.828Z,7.15
2018-06-16T18:22:22.423Z,7.28
2018-06-16T18:24:49.940Z,7.35
2018-06-16T18:27:17.461Z,6.72
2018-06-16T18:29:48.539Z,7.40
2018-06-16T18:32:16.083Z,7.37
2018-06-16T18:34:43.620Z,7.65
2018-06-16T18:37:11.197Z,7.53
2018-06-16T18:39:38.715Z,6.92
2018-06-16T18:42:06.265Z,6.83
2018-06-16T18:44:33.792Z,7.17
2018-06-16T18:47:01.330Z,7.42
2018-06-16T18:49:28.848Z,8.03
2018-06-16T18:51:56.368Z,8.50
2018-06-16T18:54:23.888Z,8.60
2018-06-16T18:56:51.423Z,7.78
2018-06-16T18:59:18.931Z,8.60
2018-06-16T19:01:46.476Z,8.08
2018-06-16T19:04:14.020Z,8.73
2018-06-16T19:06:41.535Z,9.28
2018-06-16T19:09:12.391Z,8.60
2018-06-16T19:11:40.344Z,8.43
2018-06-16T19:14:07.892Z,8.10
2018-06-16T19:16:35.436Z,7.35
2018-06-16T19:19:02.984Z,7.10
2018-06-16T19:21:30.521Z,8.28
2018-06-16T19:23:58.072Z,10.08
2018-06-16T19:26:25.604Z,10.75
2018-06-16T19:28:53.121Z,10.28
2018-06-16T19:31:20.666Z,9.05
2018-06-16T19:33:48.203Z,9.28
2018-06-16T19:36:15.712Z,8.10
2018-06-16T19:38:43.243Z,7.70
2018-06-16T19:41:10.795Z,7.30
2018-06-16T19:43:38.315Z,7.78
2018-06-16T19:46:05.860Z,7.37
2018-06-16T19:48:33.393Z,7.33
2018-06-16T19:51:01.078Z,7.45
2018-06-16T19:53:28.627Z,7.10
2018-06-16T19:55:56.144Z,7.28
2018-06-16T19:58:23.666Z,7.10
2018-06-16T20:00:51.187Z,7.80
2018-06-16T20:03:18.720Z,7.50
2018-06-16T20:05:46.236Z,8.28
2018-06-16T20:08:13.768Z,7.95
2018-06-16T20:10:41.417Z,7.47
2018-06-16T20:13:08.973Z,7.80
2018-06-16T20:15:36.504Z,7.90
2018-06-16T20:18:04.047Z,7.67
2018-06-16T20:20:31.566Z,7.65
2018-06-16T20:22:59.107Z,7.90
2018-06-16T20:25:26.651Z,7.65
2018-06-16T20:27:54.238Z,8.33
2018-06-16T20:30:39.047Z,7.95
2018-06-16T20:33:23.703Z,7.60
2018-06-16T20:35:51.204Z,8.48
2018-06-16T20:38:18.750Z,7.92
2018-06-16T20:40:53.341Z,8.05
2018-06-16T20:43:20.864Z,8.95
2018-06-16T20:45:48.408Z,9.40
2018-06-16T20:48:15.907Z,8.95
2018-06-16T20:50:43.414Z,9.28
2018-06-16T20:53:10.922Z,9.63
2018-06-16T20:55:38.427Z,9.73
2018-06-16T20:58:05.943Z,9.58
2018-06-16T21:00:33.453Z,9.40
2018-06-16T21:03:00.964Z,8.98
2018-06-16T21:05:28.478Z,9.33
2018-06-16T21:07:55.979Z,8.95
2018-06-16T21:10:23.493Z,9.10
2018-06-16T21:12:51.018Z,8.93
2018-06-16T21:15:18.543Z,8.90
2018-06-16T21:17:46.063Z,9.90
2018-06-16T21:20:13.595Z,8.95
2018-06-16T21:22:41.106Z,9.58
2018-06-16T21:28:14.395Z,9.85
2018-06-16T21:30:41.961Z,10.08
2018-06-16T21:33:09.512Z,10.38
2018-06-16T21:35:37.048Z,10.03
2018-06-16T21:38:04.592Z,11.20
2018-06-16T21:40:34.160Z,10.50
2018-06-16T21:46:11.863Z,11.08
2018-06-16T21:48:45.978Z,12.10
2018-06-16T21:51:23.670Z,11.18
2018-06-16T21:53:54.815Z,12.95
2018-06-16T21:56:22.349Z,12.05
2018-06-16T21:58:50.021Z,12.28
2018-06-16T22:01:32.641Z,12.98
2018-06-16T22:04:00.396Z,12.60
2018-06-16T22:06:27.940Z,13.13
2018-06-16T22:08:55.481Z,12.53
2018-06-16T22:11:23.025Z,12.80
2018-06-16T22:13:50.540Z,12.28
2018-06-16T22:16:18.046Z,12.25
2018-06-16T22:18:45.555Z,12.50
2018-06-16T22:21:36.938Z,12.60
2018-06-16T22:24:04.459Z,12.45
2018-06-16T22:26:31.972Z,12.73
2018-06-16T22:28:59.485Z,13.32
2018-06-16T22:31:27.000Z,13.40
2018-06-16T22:33:54.518Z,13.48
2018-06-16T22:36:25.857Z,13.38
2018-06-16T22:38:53.377Z,13.62
2018-06-16T22:41:20.905Z,13.28
2018-06-16T22:43:48.399Z,13.40
2018-06-16T22:46:15.936Z,12.93
2018-06-16T22:48:43.451Z,13.05
2018-06-16T22:51:10.964Z,13.05
2018-06-16T22:53:38.464Z,12.78
2018-06-16T22:56:06.214Z,13.10
2018-06-16T22:58:33.721Z,13.78
2018-06-16T23:01:01.233Z,12.85
2018-06-16T23:06:50.263Z,12.93
2018-06-16T23:09:17.787Z,13.60
2018-06-16T23:11:45.305Z,12.47
2018-06-16T23:14:12.833Z,13.43
2018-06-16T23:16:43.929Z,13.53
2018-06-16T23:19:11.445Z,14.23
2018-06-16T23:21:38.969Z,14.13
2018-06-16T23:24:06.467Z,14.33
2018-06-16T23:26:33.995Z,13.68
2018-06-16T23:29:01.508Z,12.25
2018-06-16T23:31:29.091Z,13.28
2018-06-16T23:33:57.367Z,13.53
2018-06-16T23:36:33.415Z,13.00
2018-06-16T23:39:00.932Z,14.03
2018-06-16T23:41:54.996Z,14.23
2018-06-16T23:44:22.508Z,14.38
2018-06-16T23:46:50.011Z,13.60
2018-06-16T23:49:17.531Z,13.32
2018-06-16T23:51:45.041Z,14.35
2018-06-16T23:54:15.715Z,13.32
2018-06-16T23:56:43.218Z,13.13
2018-06-16T23:59:25.880Z,12.37
